sensor_id;sensor_type;location;lat;lon;timestamp;temperature;humidity
37594;DHT22;23441;50.856;6.076;2022-07-15T00:00:43;15.10;99.90
37594;DHT22;23441;50.856;6.076;2022-07-15T00:03:09;15.00;99.90
37594;DHT22;23441;50.856;6.076;2022-07-15T00:05:35;14.90;99.90
37594;DHT22;23441;50.856;6.076;2022-07-15T00:08:01;15.00;99.90
37594;DHT22;23441;50.856;6.076;2022-07-15T00:10:28;14.90;99.90
37594;DHT22;23441;50.856;6.076;2022-07-15T00:12:57;14.90;99.90
37594;DHT22;23441;50.856;6.076;2022-07-15T00:15:25;15.00;99.90
37594;DHT22;23441;50.856;6.076;2022-07-15T00:17:53;14.90;99.90
37594;DHT22;23441;50.856;6.076;2022-07-15T00:20:20;14.90;99.90
37594;DHT22;23441;50.856;6.076;2022-07-15T00:22:47;14.90;99.90
37594;DHT22;23441;50.856;6.076;2022-07-15T00:25:15;14.90;99.90
37594;DHT22;23441;50.856;6.076;2022-07-15T00:30:31;15.00;99.90
37594;DHT22;23441;50.856;6.076;2022-07-15T00:33:02;15.00;99.90
37594;DHT22;23441;50.856;6.076;2022-07-15T00:35:29;15.10;99.90
37594;DHT22;23441;50.856;6.076;2022-07-15T00:37:56;15.10;99.90
37594;DHT22;23441;50.856;6.076;2022-07-15T00:40:23;15.10;99.90
37594;DHT22;23441;50.856;6.076;2022-07-15T00:42:49;15.00;99.90
37594;DHT22;23441;50.856;6.076;2022-07-15T00:45:24;15.00;99.90
37594;DHT22;23441;50.856;6.076;2022-07-15T00:47:55;15.00;99.90
37594;DHT22;23441;50.856;6.076;2022-07-15T00:50:24;15.00;99.90
37594;DHT22;23441;50.856;6.076;2022-07-15T00:53:04;15.10;99.90
37594;DHT22;23441;50.856;6.076;2022-07-15T00:55:40;15.10;99.90
37594;DHT22;23441;50.856;6.076;2022-07-15T00:58:11;15.00;99.90
37594;DHT22;23441;50.856;6.076;2022-07-15T01:00:42;15.10;99.90
37594;DHT22;23441;50.856;6.076;2022-07-15T01:03:10;15.00;99.90
37594;DHT22;23441;50.856;6.076;2022-07-15T01:05:37;15.00;99.90
37594;DHT22;23441;50.856;6.076;2022-07-15T01:08:03;15.10;99.90
37594;DHT22;23441;50.856;6.076;2022-07-15T01:10:29;15.10;99.90
37594;DHT22;23441;50.856;6.076;2022-07-15T01:12:55;15.00;99.90
37594;DHT22;23441;50.856;6.076;2022-07-15T01:15:21;15.00;99.90
37594;DHT22;23441;50.856;6.076;2022-07-15T01:17:47;15.00;99.90
37594;DHT22;23441;50.856;6.076;2022-07-15T01:20:14;15.00;99.90
37594;DHT22;23441;50.856;6.076;2022-07-15T01:22:41;15.00;99.90
37594;DHT22;23441;50.856;6.076;2022-07-15T01:25:08;15.00;99.90
37594;DHT22;23441;50.856;6.076;2022-07-15T01:27:34;15.00;99.90
37594;DHT22;23441;50.856;6.076;2022-07-15T01:30:00;15.00;99.90
37594;DHT22;23441;50.856;6.076;2022-07-15T01:32:27;15.00;99.90
37594;DHT22;23441;50.856;6.076;2022-07-15T01:34:53;15.00;99.90
37594;DHT22;23441;50.856;6.076;2022-07-15T01:37:20;15.00;99.90
37594;DHT22;23441;50.856;6.076;2022-07-15T01:39:45;15.00;99.90
37594;DHT22;23441;50.856;6.076;2022-07-15T01:42:11;15.00;99.90
37594;DHT22;23441;50.856;6.076;2022-07-15T01:44:37;15.00;99.90
37594;DHT22;23441;50.856;6.076;2022-07-15T01:47:03;15.00;99.90
37594;DHT22;23441;50.856;6.076;2022-07-15T01:49:29;15.00;99.90
37594;DHT22;23441;50.856;6.076;2022-07-15T01:51:58;15.00;99.90
37594;DHT22;23441;50.856;6.076;2022-07-15T01:54:26;15.00;99.90
37594;DHT22;23441;50.856;6.076;2022-07-15T01:56:54;14.90;99.90
37594;DHT22;23441;50.856;6.076;2022-07-15T01:59:21;15.00;99.90
37594;DHT22;23441;50.856;6.076;2022-07-15T02:01:48;14.90;99.90
37594;DHT22;23441;50.856;6.076;2022-07-15T02:04:15;14.90;99.90
37594;DHT22;23441;50.856;6.076;2022-07-15T02:06:41;14.90;99.90
37594;DHT22;23441;50.856;6.076;2022-07-15T02:09:08;14.80;99.90
37594;DHT22;23441;50.856;6.076;2022-07-15T02:11:34;14.80;99.90
37594;DHT22;23441;50.856;6.076;2022-07-15T02:14:00;14.70;99.90
37594;DHT22;23441;50.856;6.076;2022-07-15T02:16:32;14.70;99.90
37594;DHT22;23441;50.856;6.076;2022-07-15T02:18:59;14.70;99.90
37594;DHT22;23441;50.856;6.076;2022-07-15T02:21:25;14.70;99.90
37594;DHT22;23441;50.856;6.076;2022-07-15T02:23:53;14.70;99.90
37594;DHT22;23441;50.856;6.076;2022-07-15T02:26:20;14.70;99.90
37594;DHT22;23441;50.856;6.076;2022-07-15T02:28:46;14.70;99.90
37594;DHT22;23441;50.856;6.076;2022-07-15T02:31:12;14.80;99.90
37594;DHT22;23441;50.856;6.076;2022-07-15T02:33:39;14.70;99.90
37594;DHT22;23441;50.856;6.076;2022-07-15T02:36:06;14.70;99.90
37594;DHT22;23441;50.856;6.076;2022-07-15T02:38:32;14.60;99.90
37594;DHT22;23441;50.856;6.076;2022-07-15T02:40:58;14.60;99.90
37594;DHT22;23441;50.856;6.076;2022-07-15T02:43:24;14.60;99.90
37594;DHT22;23441;50.856;6.076;2022-07-15T02:45:50;14.60;99.90
37594;DHT22;23441;50.856;6.076;2022-07-15T02:48:16;14.60;99.90
37594;DHT22;23441;50.856;6.076;2022-07-15T02:50:42;14.50;99.90
37594;DHT22;23441;50.856;6.076;2022-07-15T02:53:09;14.50;99.90
37594;DHT22;23441;50.856;6.076;2022-07-15T02:55:35;14.40;99.90
37594;DHT22;23441;50.856;6.076;2022-07-15T02:58:00;14.40;99.90
37594;DHT22;23441;50.856;6.076;2022-07-15T03:00:27;14.40;99.90
37594;DHT22;23441;50.856;6.076;2022-07-15T03:02:53;14.40;99.90
37594;DHT22;23441;50.856;6.076;2022-07-15T03:05:19;14.40;99.90
37594;DHT22;23441;50.856;6.076;2022-07-15T03:07:46;14.30;99.90
37594;DHT22;23441;50.856;6.076;2022-07-15T03:10:12;14.30;99.90
37594;DHT22;23441;50.856;6.076;2022-07-15T03:12:39;14.30;99.90
37594;DHT22;23441;50.856;6.076;2022-07-15T03:15:05;14.30;99.90
37594;DHT22;23441;50.856;6.076;2022-07-15T03:17:32;14.30;99.90
37594;DHT22;23441;50.856;6.076;2022-07-15T03:19:58;14.30;99.90
37594;DHT22;23441;50.856;6.076;2022-07-15T03:22:25;14.20;99.90
37594;DHT22;23441;50.856;6.076;2022-07-15T03:24:53;14.10;99.90
37594;DHT22;23441;50.856;6.076;2022-07-15T03:27:19;14.10;99.90
37594;DHT22;23441;50.856;6.076;2022-07-15T03:29:45;14.00;99.90
37594;DHT22;23441;50.856;6.076;2022-07-15T03:32:11;13.90;99.90
37594;DHT22;23441;50.856;6.076;2022-07-15T03:34:41;13.90;99.90
37594;DHT22;23441;50.856;6.076;2022-07-15T03:37:08;13.80;99.90
37594;DHT22;23441;50.856;6.076;2022-07-15T03:39:34;13.80;99.90
37594;DHT22;23441;50.856;6.076;2022-07-15T03:42:00;13.80;99.90
37594;DHT22;23441;50.856;6.076;2022-07-15T03:44:26;13.70;99.90
37594;DHT22;23441;50.856;6.076;2022-07-15T03:46:52;13.70;99.90
37594;DHT22;23441;50.856;6.076;2022-07-15T03:49:18;13.70;99.90
37594;DHT22;23441;50.856;6.076;2022-07-15T03:51:44;13.60;99.90
37594;DHT22;23441;50.856;6.076;2022-07-15T03:54:10;13.60;99.90
37594;DHT22;23441;50.856;6.076;2022-07-15T03:56:36;13.60;99.90
37594;DHT22;23441;50.856;6.076;2022-07-15T03:59:03;13.50;99.90
37594;DHT22;23441;50.856;6.076;2022-07-15T04:01:30;13.60;99.90
37594;DHT22;23441;50.856;6.076;2022-07-15T04:03:56;13.50;99.90
37594;DHT22;23441;50.856;6.076;2022-07-15T04:06:22;13.40;99.90
37594;DHT22;23441;50.856;6.076;2022-07-15T04:08:50;13.50;99.90
37594;DHT22;23441;50.856;6.076;2022-07-15T04:11:17;13.60;99.90
37594;DHT22;23441;50.856;6.076;2022-07-15T04:13:43;13.70;99.90
37594;DHT22;23441;50.856;6.076;2022-07-15T04:16:10;13.80;99.90
37594;DHT22;23441;50.856;6.076;2022-07-15T04:18:39;13.90;99.90
37594;DHT22;23441;50.856;6.076;2022-07-15T04:21:05;13.90;99.90
37594;DHT22;23441;50.856;6.076;2022-07-15T04:23:31;13.90;99.90
37594;DHT22;23441;50.856;6.076;2022-07-15T04:25:57;13.70;99.90
37594;DHT22;23441;50.856;6.076;2022-07-15T04:28:24;13.70;99.90
37594;DHT22;23441;50.856;6.076;2022-07-15T04:30:50;13.80;99.90
37594;DHT22;23441;50.856;6.076;2022-07-15T04:33:19;13.70;99.90
37594;DHT22;23441;50.856;6.076;2022-07-15T04:35:46;13.60;99.90
37594;DHT22;23441;50.856;6.076;2022-07-15T04:38:12;13.60;99.90
37594;DHT22;23441;50.856;6.076;2022-07-15T04:40:38;13.60;99.90
37594;DHT22;23441;50.856;6.076;2022-07-15T04:43:06;13.70;99.90
37594;DHT22;23441;50.856;6.076;2022-07-15T04:45:32;13.70;99.90
37594;DHT22;23441;50.856;6.076;2022-07-15T04:47:58;13.70;99.90
37594;DHT22;23441;50.856;6.076;2022-07-15T04:50:24;13.70;99.90
37594;DHT22;23441;50.856;6.076;2022-07-15T04:53:28;13.80;99.90
37594;DHT22;23441;50.856;6.076;2022-07-15T04:55:54;13.70;99.90
37594;DHT22;23441;50.856;6.076;2022-07-15T04:58:20;13.80;99.90
37594;DHT22;23441;50.856;6.076;2022-07-15T05:00:46;13.80;99.90
37594;DHT22;23441;50.856;6.076;2022-07-15T05:03:12;13.80;99.90
37594;DHT22;23441;50.856;6.076;2022-07-15T05:05:38;13.80;99.90
37594;DHT22;23441;50.856;6.076;2022-07-15T05:08:04;13.80;99.90
37594;DHT22;23441;50.856;6.076;2022-07-15T05:10:32;13.80;99.90
37594;DHT22;23441;50.856;6.076;2022-07-15T05:12:58;13.90;99.90
37594;DHT22;23441;50.856;6.076;2022-07-15T05:15:24;14.00;99.90
37594;DHT22;23441;50.856;6.076;2022-07-15T05:17:50;14.10;99.90
37594;DHT22;23441;50.856;6.076;2022-07-15T05:20:16;14.20;99.90
37594;DHT22;23441;50.856;6.076;2022-07-15T05:22:42;14.30;99.90
37594;DHT22;23441;50.856;6.076;2022-07-15T05:25:08;14.40;99.90
37594;DHT22;23441;50.856;6.076;2022-07-15T05:27:34;14.50;99.90
37594;DHT22;23441;50.856;6.076;2022-07-15T05:30:00;14.60;99.90
37594;DHT22;23441;50.856;6.076;2022-07-15T05:32:26;14.60;99.90
37594;DHT22;23441;50.856;6.076;2022-07-15T05:34:53;14.70;99.90
37594;DHT22;23441;50.856;6.076;2022-07-15T05:37:19;14.80;99.90
37594;DHT22;23441;50.856;6.076;2022-07-15T05:39:45;14.80;99.90
37594;DHT22;23441;50.856;6.076;2022-07-15T05:42:29;15.00;99.90
37594;DHT22;23441;50.856;6.076;2022-07-15T05:44:55;14.90;99.90
37594;DHT22;23441;50.856;6.076;2022-07-15T05:47:21;15.30;99.90
37594;DHT22;23441;50.856;6.076;2022-07-15T05:49:47;15.40;99.90
37594;DHT22;23441;50.856;6.076;2022-07-15T05:52:13;15.40;99.90
37594;DHT22;23441;50.856;6.076;2022-07-15T05:54:39;15.50;99.90
37594;DHT22;23441;50.856;6.076;2022-07-15T05:57:05;15.60;99.90
37594;DHT22;23441;50.856;6.076;2022-07-15T05:59:31;15.50;99.90
37594;DHT22;23441;50.856;6.076;2022-07-15T06:01:58;15.80;99.90
37594;DHT22;23441;50.856;6.076;2022-07-15T06:04:24;16.10;99.90
37594;DHT22;23441;50.856;6.076;2022-07-15T06:06:53;16.90;99.90
37594;DHT22;23441;50.856;6.076;2022-07-15T06:09:20;17.50;99.90
37594;DHT22;23441;50.856;6.076;2022-07-15T06:11:46;17.40;99.90
37594;DHT22;23441;50.856;6.076;2022-07-15T06:14:12;17.10;99.90
37594;DHT22;23441;50.856;6.076;2022-07-15T06:16:38;17.30;99.90
37594;DHT22;23441;50.856;6.076;2022-07-15T06:19:04;18.10;99.90
37594;DHT22;23441;50.856;6.076;2022-07-15T06:21:30;19.60;99.90
37594;DHT22;23441;50.856;6.076;2022-07-15T06:23:56;21.20;99.90
37594;DHT22;23441;50.856;6.076;2022-07-15T06:26:22;21.70;99.90
37594;DHT22;23441;50.856;6.076;2022-07-15T06:28:48;22.90;99.90
37594;DHT22;23441;50.856;6.076;2022-07-15T06:31:14;22.80;98.80
37594;DHT22;23441;50.856;6.076;2022-07-15T06:33:41;23.90;99.90
37594;DHT22;23441;50.856;6.076;2022-07-15T06:36:07;24.30;98.30
37594;DHT22;23441;50.856;6.076;2022-07-15T06:38:33;24.90;98.00
37594;DHT22;23441;50.856;6.076;2022-07-15T06:40:59;25.00;95.90
37594;DHT22;23441;50.856;6.076;2022-07-15T06:43:25;25.20;94.10
37594;DHT22;23441;50.856;6.076;2022-07-15T06:45:51;26.70;94.10
37594;DHT22;23441;50.856;6.076;2022-07-15T06:48:17;27.00;92.90
37594;DHT22;23441;50.856;6.076;2022-07-15T06:50:43;25.80;95.00
37594;DHT22;23441;50.856;6.076;2022-07-15T06:53:09;27.20;93.50
37594;DHT22;23441;50.856;6.076;2022-07-15T06:55:35;27.60;92.60
37594;DHT22;23441;50.856;6.076;2022-07-15T06:58:01;27.90;91.20
37594;DHT22;23441;50.856;6.076;2022-07-15T07:00:27;26.10;91.70
37594;DHT22;23441;50.856;6.076;2022-07-15T07:02:53;26.30;92.80
37594;DHT22;23441;50.856;6.076;2022-07-15T07:05:19;27.70;92.00
37594;DHT22;23441;50.856;6.076;2022-07-15T07:07:45;28.30;91.00
37594;DHT22;23441;50.856;6.076;2022-07-15T07:10:11;26.80;88.80
37594;DHT22;23441;50.856;6.076;2022-07-15T07:12:37;25.20;91.40
37594;DHT22;23441;50.856;6.076;2022-07-15T07:15:03;24.30;93.00
37594;DHT22;23441;50.856;6.076;2022-07-15T07:17:31;24.00;94.70
37594;DHT22;23441;50.856;6.076;2022-07-15T07:19:57;23.40;93.10
37594;DHT22;23441;50.856;6.076;2022-07-15T07:22:23;21.60;94.80
37594;DHT22;23441;50.856;6.076;2022-07-15T07:24:49;20.50;97.40
37594;DHT22;23441;50.856;6.076;2022-07-15T07:27:15;19.90;99.10
37594;DHT22;23441;50.856;6.076;2022-07-15T07:29:41;20.40;99.90
37594;DHT22;23441;50.856;6.076;2022-07-15T07:32:07;20.30;99.30
37594;DHT22;23441;50.856;6.076;2022-07-15T07:34:33;20.40;99.90
37594;DHT22;23441;50.856;6.076;2022-07-15T07:36:59;20.10;99.20
37594;DHT22;23441;50.856;6.076;2022-07-15T07:39:25;19.90;99.90
37594;DHT22;23441;50.856;6.076;2022-07-15T07:41:50;19.50;99.90
37594;DHT22;23441;50.856;6.076;2022-07-15T07:44:20;20.30;99.90
37594;DHT22;23441;50.856;6.076;2022-07-15T07:46:46;20.10;99.20
37594;DHT22;23441;50.856;6.076;2022-07-15T07:49:13;19.90;99.90
37594;DHT22;23441;50.856;6.076;2022-07-15T07:51:40;20.70;99.50
37594;DHT22;23441;50.856;6.076;2022-07-15T07:54:07;21.10;97.90
37594;DHT22;23441;50.856;6.076;2022-07-15T07:56:34;21.10;97.60
37594;DHT22;23441;50.856;6.076;2022-07-15T07:59:00;21.50;97.70
37594;DHT22;23441;50.856;6.076;2022-07-15T08:01:26;21.90;99.80
37594;DHT22;23441;50.856;6.076;2022-07-15T08:03:52;23.50;95.80
37594;DHT22;23441;50.856;6.076;2022-07-15T08:06:18;23.50;94.90
37594;DHT22;23441;50.856;6.076;2022-07-15T08:08:45;25.60;93.00
37594;DHT22;23441;50.856;6.076;2022-07-15T08:11:11;26.00;92.90
37594;DHT22;23441;50.856;6.076;2022-07-15T08:13:38;25.60;90.80
37594;DHT22;23441;50.856;6.076;2022-07-15T08:16:04;25.40;91.20
37594;DHT22;23441;50.856;6.076;2022-07-15T08:18:30;24.50;91.70
37594;DHT22;23441;50.856;6.076;2022-07-15T08:20:56;24.90;91.70
37594;DHT22;23441;50.856;6.076;2022-07-15T08:23:22;24.90;91.20
37594;DHT22;23441;50.856;6.076;2022-07-15T08:25:50;25.20;90.50
37594;DHT22;23441;50.856;6.076;2022-07-15T08:28:17;25.20;89.00
37594;DHT22;23441;50.856;6.076;2022-07-15T08:30:43;23.30;90.90
37594;DHT22;23441;50.856;6.076;2022-07-15T08:33:10;22.40;92.30
37594;DHT22;23441;50.856;6.076;2022-07-15T08:35:36;21.90;92.80
37594;DHT22;23441;50.856;6.076;2022-07-15T08:38:05;21.50;93.50
37594;DHT22;23441;50.856;6.076;2022-07-15T08:40:36;21.20;94.40
37594;DHT22;23441;50.856;6.076;2022-07-15T08:43:09;20.40;95.10
37594;DHT22;23441;50.856;6.076;2022-07-15T08:45:38;20.20;96.40
37594;DHT22;23441;50.856;6.076;2022-07-15T08:48:06;19.50;96.00
37594;DHT22;23441;50.856;6.076;2022-07-15T08:50:34;19.40;96.80
37594;DHT22;23441;50.856;6.076;2022-07-15T08:53:00;19.40;96.10
37594;DHT22;23441;50.856;6.076;2022-07-15T08:55:26;19.00;97.40
37594;DHT22;23441;50.856;6.076;2022-07-15T08:57:53;19.40;97.70
37594;DHT22;23441;50.856;6.076;2022-07-15T09:00:23;20.00;95.20
37594;DHT22;23441;50.856;6.076;2022-07-15T09:02:58;19.80;94.70
37594;DHT22;23441;50.856;6.076;2022-07-15T09:05:29;19.80;95.30
37594;DHT22;23441;50.856;6.076;2022-07-15T09:08:04;20.90;98.10
37594;DHT22;23441;50.856;6.076;2022-07-15T09:11:14;23.40;96.60
37594;DHT22;23441;50.856;6.076;2022-07-15T09:13:39;25.50;91.50
37594;DHT22;23441;50.856;6.076;2022-07-15T09:16:11;26.80;88.70
37594;DHT22;23441;50.856;6.076;2022-07-15T09:18:46;27.80;83.70
37594;DHT22;23441;50.856;6.076;2022-07-15T09:21:23;28.40;86.10
37594;DHT22;23441;50.856;6.076;2022-07-15T09:23:54;28.80;83.70
37594;DHT22;23441;50.856;6.076;2022-07-15T09:26:29;28.80;81.50
37594;DHT22;23441;50.856;6.076;2022-07-15T09:28:57;28.80;81.40
37594;DHT22;23441;50.856;6.076;2022-07-15T09:31:36;28.30;81.10
37594;DHT22;23441;50.856;6.076;2022-07-15T09:34:24;27.30;80.80
37594;DHT22;23441;50.856;6.076;2022-07-15T09:36:54;26.60;84.10
37594;DHT22;23441;50.856;6.076;2022-07-15T09:39:23;25.80;84.40
37594;DHT22;23441;50.856;6.076;2022-07-15T09:41:50;26.00;80.20
37594;DHT22;23441;50.856;6.076;2022-07-15T09:44:18;25.60;83.20
37594;DHT22;23441;50.856;6.076;2022-07-15T09:52:01;24.50;84.70
37594;DHT22;23441;50.856;6.076;2022-07-15T09:54:42;23.90;84.50
37594;DHT22;23441;50.856;6.076;2022-07-15T09:57:17;22.80;85.50
37594;DHT22;23441;50.856;6.076;2022-07-15T09:59:45;22.70;90.00
37594;DHT22;23441;50.856;6.076;2022-07-15T10:02:12;22.10;86.90
37594;DHT22;23441;50.856;6.076;2022-07-15T10:04:39;22.10;90.00
37594;DHT22;23441;50.856;6.076;2022-07-15T10:07:06;22.60;88.40
37594;DHT22;23441;50.856;6.076;2022-07-15T10:09:34;22.70;85.60
37594;DHT22;23441;50.856;6.076;2022-07-15T10:12:17;22.80;84.50
37594;DHT22;23441;50.856;6.076;2022-07-15T10:15:28;22.20;83.70
37594;DHT22;23441;50.856;6.076;2022-07-15T10:18:31;22.90;89.30
37594;DHT22;23441;50.856;6.076;2022-07-15T10:21:24;22.30;83.30
37594;DHT22;23441;50.856;6.076;2022-07-15T10:23:59;22.50;87.30
37594;DHT22;23441;50.856;6.076;2022-07-15T10:27:15;23.20;85.70
37594;DHT22;23441;50.856;6.076;2022-07-15T10:29:53;23.70;84.50
37594;DHT22;23441;50.856;6.076;2022-07-15T10:32:19;24.30;86.10
37594;DHT22;23441;50.856;6.076;2022-07-15T10:34:45;25.20;85.50
37594;DHT22;23441;50.856;6.076;2022-07-15T10:37:12;25.30;82.30
37594;DHT22;23441;50.856;6.076;2022-07-15T10:39:58;25.40;82.40
37594;DHT22;23441;50.856;6.076;2022-07-15T10:42:56;24.70;80.10
37594;DHT22;23441;50.856;6.076;2022-07-15T10:45:24;23.60;81.80
37594;DHT22;23441;50.856;6.076;2022-07-15T10:48:25;23.00;82.40
37594;DHT22;23441;50.856;6.076;2022-07-15T10:50:56;22.40;83.10
37594;DHT22;23441;50.856;6.076;2022-07-15T10:53:25;22.20;87.70
37594;DHT22;23441;50.856;6.076;2022-07-15T10:55:53;23.00;87.70
37594;DHT22;23441;50.856;6.076;2022-07-15T10:58:19;24.00;85.20
37594;DHT22;23441;50.856;6.076;2022-07-15T11:00:46;24.20;79.40
37594;DHT22;23441;50.856;6.076;2022-07-15T11:03:19;24.60;81.90
37594;DHT22;23441;50.856;6.076;2022-07-15T11:13:45;24.40;78.80
37594;DHT22;23441;50.856;6.076;2022-07-15T11:16:17;24.20;80.20
37594;DHT22;23441;50.856;6.076;2022-07-15T11:21:12;24.70;85.50
37594;DHT22;23441;50.856;6.076;2022-07-15T11:23:38;24.10;81.30
37594;DHT22;23441;50.856;6.076;2022-07-15T11:26:05;23.60;82.60
37594;DHT22;23441;50.856;6.076;2022-07-15T11:28:31;23.70;80.10
37594;DHT22;23441;50.856;6.076;2022-07-15T11:30:57;24.20;83.30
37594;DHT22;23441;50.856;6.076;2022-07-15T11:33:24;23.80;80.30
37594;DHT22;23441;50.856;6.076;2022-07-15T11:35:57;23.70;84.00
37594;DHT22;23441;50.856;6.076;2022-07-15T11:38:32;24.10;82.50
37594;DHT22;23441;50.856;6.076;2022-07-15T11:41:04;24.10;81.80
37594;DHT22;23441;50.856;6.076;2022-07-15T11:43:59;24.70;80.50
37594;DHT22;23441;50.856;6.076;2022-07-15T11:46:47;24.70;79.50
37594;DHT22;23441;50.856;6.076;2022-07-15T11:49:36;24.00;80.70
37594;DHT22;23441;50.856;6.076;2022-07-15T11:52:22;23.40;81.90
37594;DHT22;23441;50.856;6.076;2022-07-15T11:54:50;24.00;81.30
37594;DHT22;23441;50.856;6.076;2022-07-15T11:57:16;24.80;80.10
37594;DHT22;23441;50.856;6.076;2022-07-15T11:59:56;24.60;80.70
37594;DHT22;23441;50.856;6.076;2022-07-15T12:02:25;25.40;86.20
37594;DHT22;23441;50.856;6.076;2022-07-15T12:05:02;25.70;77.50
37594;DHT22;23441;50.856;6.076;2022-07-15T12:07:46;25.70;81.10
37594;DHT22;23441;50.856;6.076;2022-07-15T12:10:14;26.40;80.90
37594;DHT22;23441;50.856;6.076;2022-07-15T12:12:55;26.00;78.70
37594;DHT22;23441;50.856;6.076;2022-07-15T12:15:22;25.30;77.50
37594;DHT22;23441;50.856;6.076;2022-07-15T12:17:49;24.60;79.60
37594;DHT22;23441;50.856;6.076;2022-07-15T12:20:15;25.00;81.70
37594;DHT22;23441;50.856;6.076;2022-07-15T12:23:06;25.40;80.70
37594;DHT22;23441;50.856;6.076;2022-07-15T12:25:36;25.50;79.90
37594;DHT22;23441;50.856;6.076;2022-07-15T12:28:02;25.50;77.60
37594;DHT22;23441;50.856;6.076;2022-07-15T12:30:36;25.50;80.90
37594;DHT22;23441;50.856;6.076;2022-07-15T12:33:22;26.30;82.40
37594;DHT22;23441;50.856;6.076;2022-07-15T12:35:49;25.90;79.80
37594;DHT22;23441;50.856;6.076;2022-07-15T12:38:30;24.80;78.10
37594;DHT22;23441;50.856;6.076;2022-07-15T12:41:07;25.40;81.00
37594;DHT22;23441;50.856;6.076;2022-07-15T12:43:57;25.20;80.70
37594;DHT22;23441;50.856;6.076;2022-07-15T12:49:12;24.70;81.30
37594;DHT22;23441;50.856;6.076;2022-07-15T12:51:38;24.80;78.40
37594;DHT22;23441;50.856;6.076;2022-07-15T12:54:05;25.40;84.20
37594;DHT22;23441;50.856;6.076;2022-07-15T12:56:50;25.90;79.20
37594;DHT22;23441;50.856;6.076;2022-07-15T12:59:16;26.30;79.40
37594;DHT22;23441;50.856;6.076;2022-07-15T13:02:01;26.60;82.20
37594;DHT22;23441;50.856;6.076;2022-07-15T13:04:28;27.20;82.00
37594;DHT22;23441;50.856;6.076;2022-07-15T13:06:54;26.80;78.10
37594;DHT22;23441;50.856;6.076;2022-07-15T13:09:20;27.10;81.70
37594;DHT22;23441;50.856;6.076;2022-07-15T13:11:57;26.70;79.50
37594;DHT22;23441;50.856;6.076;2022-07-15T13:14:25;27.10;81.60
37594;DHT22;23441;50.856;6.076;2022-07-15T13:16:51;26.60;75.40
37594;DHT22;23441;50.856;6.076;2022-07-15T13:19:16;26.00;79.20
37594;DHT22;23441;50.856;6.076;2022-07-15T13:21:42;24.90;76.30
37594;DHT22;23441;50.856;6.076;2022-07-15T13:24:09;24.50;79.60
37594;DHT22;23441;50.856;6.076;2022-07-15T13:26:35;24.00;78.70
37594;DHT22;23441;50.856;6.076;2022-07-15T13:29:00;24.00;76.90
37594;DHT22;23441;50.856;6.076;2022-07-15T13:31:26;24.30;78.80
37594;DHT22;23441;50.856;6.076;2022-07-15T13:33:53;25.10;78.60
37594;DHT22;23441;50.856;6.076;2022-07-15T13:36:19;25.60;75.70
37594;DHT22;23441;50.856;6.076;2022-07-15T13:38:45;26.00;78.10
37594;DHT22;23441;50.856;6.076;2022-07-15T13:41:11;26.70;76.20
37594;DHT22;23441;50.856;6.076;2022-07-15T13:43:36;26.40;77.70
37594;DHT22;23441;50.856;6.076;2022-07-15T13:46:02;26.20;74.90
37594;DHT22;23441;50.856;6.076;2022-07-15T13:48:28;26.30;75.50
37594;DHT22;23441;50.856;6.076;2022-07-15T13:50:54;26.40;76.30
37594;DHT22;23441;50.856;6.076;2022-07-15T13:53:39;26.60;75.90
37594;DHT22;23441;50.856;6.076;2022-07-15T13:56:05;26.60;72.60
37594;DHT22;23441;50.856;6.076;2022-07-15T13:58:31;26.30;75.20
37594;DHT22;23441;50.856;6.076;2022-07-15T14:00:58;26.20;73.60
37594;DHT22;23441;50.856;6.076;2022-07-15T14:03:24;26.30;75.40
37594;DHT22;23441;50.856;6.076;2022-07-15T14:05:50;26.20;75.50
37594;DHT22;23441;50.856;6.076;2022-07-15T14:08:16;26.30;78.80
37594;DHT22;23441;50.856;6.076;2022-07-15T14:10:42;26.60;74.90
37594;DHT22;23441;50.856;6.076;2022-07-15T14:13:08;27.00;75.80
37594;DHT22;23441;50.856;6.076;2022-07-15T14:15:34;26.30;75.00
37594;DHT22;23441;50.856;6.076;2022-07-15T14:18:00;26.40;73.80
37594;DHT22;23441;50.856;6.076;2022-07-15T14:20:26;25.00;76.20
37594;DHT22;23441;50.856;6.076;2022-07-15T14:22:52;24.50;77.30
37594;DHT22;23441;50.856;6.076;2022-07-15T14:25:18;24.30;77.70
37594;DHT22;23441;50.856;6.076;2022-07-15T14:27:43;24.10;77.80
37594;DHT22;23441;50.856;6.076;2022-07-15T14:30:09;24.50;76.80
37594;DHT22;23441;50.856;6.076;2022-07-15T14:32:36;24.20;77.60
37594;DHT22;23441;50.856;6.076;2022-07-15T14:35:02;23.90;79.60
37594;DHT22;23441;50.856;6.076;2022-07-15T14:37:29;24.50;79.00
37594;DHT22;23441;50.856;6.076;2022-07-15T14:39:55;25.50;77.30
37594;DHT22;23441;50.856;6.076;2022-07-15T14:42:21;25.70;76.30
37594;DHT22;23441;50.856;6.076;2022-07-15T14:44:47;26.00;76.10
37594;DHT22;23441;50.856;6.076;2022-07-15T14:47:13;26.20;75.40
37594;DHT22;23441;50.856;6.076;2022-07-15T14:49:39;26.20;76.40
37594;DHT22;23441;50.856;6.076;2022-07-15T14:52:05;26.20;76.00
37594;DHT22;23441;50.856;6.076;2022-07-15T14:54:30;26.00;76.10
37594;DHT22;23441;50.856;6.076;2022-07-15T14:56:56;25.60;74.80
37594;DHT22;23441;50.856;6.076;2022-07-15T14:59:22;25.30;75.60
37594;DHT22;23441;50.856;6.076;2022-07-15T15:01:48;25.10;75.50
37594;DHT22;23441;50.856;6.076;2022-07-15T15:04:14;24.80;76.40
37594;DHT22;23441;50.856;6.076;2022-07-15T15:06:40;24.00;75.40
37594;DHT22;23441;50.856;6.076;2022-07-15T15:09:06;23.50;77.40
37594;DHT22;23441;50.856;6.076;2022-07-15T15:11:32;23.40;77.50
37594;DHT22;23441;50.856;6.076;2022-07-15T15:13:58;23.40;77.50
37594;DHT22;23441;50.856;6.076;2022-07-15T15:16:25;23.50;75.90
37594;DHT22;23441;50.856;6.076;2022-07-15T15:18:50;24.00;75.70
37594;DHT22;23441;50.856;6.076;2022-07-15T15:21:16;24.70;75.40
37594;DHT22;23441;50.856;6.076;2022-07-15T15:23:42;25.10;74.60
37594;DHT22;23441;50.856;6.076;2022-07-15T15:26:08;25.20;75.50
37594;DHT22;23441;50.856;6.076;2022-07-15T15:28:55;25.90;77.10
37594;DHT22;23441;50.856;6.076;2022-07-15T15:31:23;25.80;76.80
37594;DHT22;23441;50.856;6.076;2022-07-15T15:33:51;26.00;75.30
37594;DHT22;23441;50.856;6.076;2022-07-15T15:36:18;25.50;74.80
37594;DHT22;23441;50.856;6.076;2022-07-15T15:38:45;25.50;75.40
37594;DHT22;23441;50.856;6.076;2022-07-15T15:41:11;25.70;75.90
37594;DHT22;23441;50.856;6.076;2022-07-15T15:43:37;25.00;74.60
37594;DHT22;23441;50.856;6.076;2022-07-15T15:46:04;24.60;76.10
37594;DHT22;23441;50.856;6.076;2022-07-15T15:48:30;24.00;78.00
37594;DHT22;23441;50.856;6.076;2022-07-15T15:50:57;23.70;78.80
37594;DHT22;23441;50.856;6.076;2022-07-15T15:53:24;23.40;77.60
37594;DHT22;23441;50.856;6.076;2022-07-15T15:55:50;23.30;79.10
37594;DHT22;23441;50.856;6.076;2022-07-15T15:58:16;23.30;78.20
37594;DHT22;23441;50.856;6.076;2022-07-15T16:00:42;23.40;79.40